sensor_id;sensor_type;location;lat;lon;timestamp;P1;durP1;ratioP1;P2;durP2;ratioP2
75930;SDS011;64609;47.052;15.462;2023-03-23T00:01:14;22.75;;;9.07;;
75930;SDS011;64609;47.052;15.462;2023-03-23T00:03:44;30.23;;;13.88;;
75930;SDS011;64609;47.052;15.462;2023-03-23T00:08:42;26.58;;;11.90;;
75930;SDS011;64609;47.052;15.462;2023-03-23T00:11:12;27.05;;;12.65;;
75930;SDS011;64609;47.052;15.462;2023-03-23T00:13:39;56.35;;;24.50;;
75930;SDS011;64609;47.052;15.462;2023-03-23T00:16:06;67.78;;;27.58;;
75930;SDS011;64609;47.052;15.462;2023-03-23T00:18:51;88.80;;;36.63;;
75930;SDS011;64609;47.052;15.462;2023-03-23T00:21:27;67.68;;;28.55;;
75930;SDS011;64609;47.052;15.462;2023-03-23T00:24:01;71.00;;;30.48;;
75930;SDS011;64609;47.052;15.462;2023-03-23T00:26:32;56.83;;;26.98;;
75930;SDS011;64609;47.052;15.462;2023-03-23T00:29:01;55.78;;;24.75;;
75930;SDS011;64609;47.052;15.462;2023-03-23T00:31:28;46.40;;;21.25;;
75930;SDS011;64609;47.052;15.462;2023-03-23T00:33:58;45.97;;;20.02;;
75930;SDS011;64609;47.052;15.462;2023-03-23T00:36:26;36.03;;;18.48;;
75930;SDS011;64609;47.052;15.462;2023-03-23T00:38:53;27.70;;;14.02;;
75930;SDS011;64609;47.052;15.462;2023-03-23T00:41:22;28.45;;;13.35;;
75930;SDS011;64609;47.052;15.462;2023-03-23T00:43:51;21.20;;;12.13;;
75930;SDS011;64609;47.052;15.462;2023-03-23T00:46:18;16.20;;;9.85;;
75930;SDS011;64609;47.052;15.462;2023-03-23T00:48:45;15.88;;;9.20;;
75930;SDS011;64609;47.052;15.462;2023-03-23T00:51:11;18.67;;;10.10;;
75930;SDS011;64609;47.052;15.462;2023-03-23T00:53:38;15.80;;;9.25;;
75930;SDS011;64609;47.052;15.462;2023-03-23T00:56:05;15.68;;;8.30;;
75930;SDS011;64609;47.052;15.462;2023-03-23T00:58:32;13.40;;;8.25;;
75930;SDS011;64609;47.052;15.462;2023-03-23T01:00:58;17.30;;;7.10;;
75930;SDS011;64609;47.052;15.462;2023-03-23T01:03:24;10.00;;;7.10;;
75930;SDS011;64609;47.052;15.462;2023-03-23T01:05:50;11.50;;;6.57;;
75930;SDS011;64609;47.052;15.462;2023-03-23T01:08:17;10.02;;;7.03;;
75930;SDS011;64609;47.052;15.462;2023-03-23T01:10:44;10.18;;;6.38;;
75930;SDS011;64609;47.052;15.462;2023-03-23T01:13:11;14.13;;;6.85;;
75930;SDS011;64609;47.052;15.462;2023-03-23T01:15:37;10.38;;;6.60;;
75930;SDS011;64609;47.052;15.462;2023-03-23T01:18:03;12.65;;;6.90;;
75930;SDS011;64609;47.052;15.462;2023-03-23T01:20:29;11.65;;;6.55;;
75930;SDS011;64609;47.052;15.462;2023-03-23T01:22:56;11.77;;;6.25;;
75930;SDS011;64609;47.052;15.462;2023-03-23T01:25:26;8.30;;;6.13;;
75930;SDS011;64609;47.052;15.462;2023-03-23T01:27:53;9.50;;;5.47;;
75930;SDS011;64609;47.052;15.462;2023-03-23T01:30:19;9.73;;;6.20;;
75930;SDS011;64609;47.052;15.462;2023-03-23T01:32:44;9.38;;;5.72;;
75930;SDS011;64609;47.052;15.462;2023-03-23T01:35:12;8.27;;;6.10;;
75930;SDS011;64609;47.052;15.462;2023-03-23T01:37:37;8.07;;;5.72;;
75930;SDS011;64609;47.052;15.462;2023-03-23T01:40:03;12.23;;;5.72;;
75930;SDS011;64609;47.052;15.462;2023-03-23T01:42:30;9.07;;;5.97;;
75930;SDS011;64609;47.052;15.462;2023-03-23T01:47:50;7.15;;;5.80;;
75930;SDS011;64609;47.052;15.462;2023-03-23T01:50:21;10.02;;;5.82;;
75930;SDS011;64609;47.052;15.462;2023-03-23T01:52:49;13.20;;;6.25;;
75930;SDS011;64609;47.052;15.462;2023-03-23T01:55:18;11.02;;;5.93;;
75930;SDS011;64609;47.052;15.462;2023-03-23T01:57:44;9.48;;;5.63;;
75930;SDS011;64609;47.052;15.462;2023-03-23T02:00:12;9.00;;;6.13;;
75930;SDS011;64609;47.052;15.462;2023-03-23T02:02:44;8.57;;;6.00;;
75930;SDS011;64609;47.052;15.462;2023-03-23T02:05:17;14.23;;;6.72;;
75930;SDS011;64609;47.052;15.462;2023-03-23T02:07:52;10.60;;;6.05;;
75930;SDS011;64609;47.052;15.462;2023-03-23T02:10:19;14.30;;;6.72;;
75930;SDS011;64609;47.052;15.462;2023-03-23T02:12:44;10.52;;;6.65;;
75930;SDS011;64609;47.052;15.462;2023-03-23T02:15:10;11.13;;;6.50;;
75930;SDS011;64609;47.052;15.462;2023-03-23T02:17:46;13.48;;;6.63;;
75930;SDS011;64609;47.052;15.462;2023-03-23T02:26:33;15.07;;;7.50;;
75930;SDS011;64609;47.052;15.462;2023-03-23T02:29:16;12.68;;;7.10;;
75930;SDS011;64609;47.052;15.462;2023-03-23T02:31:53;10.52;;;6.47;;
75930;SDS011;64609;47.052;15.462;2023-03-23T02:34:36;12.45;;;7.05;;
75930;SDS011;64609;47.052;15.462;2023-03-23T02:37:14;9.55;;;6.88;;
75930;SDS011;64609;47.052;15.462;2023-03-23T02:39:44;14.70;;;6.55;;
75930;SDS011;64609;47.052;15.462;2023-03-23T02:42:18;20.17;;;7.50;;
75930;SDS011;64609;47.052;15.462;2023-03-23T02:44:48;14.27;;;7.18;;
75930;SDS011;64609;47.052;15.462;2023-03-23T02:47:17;11.02;;;7.03;;
75930;SDS011;64609;47.052;15.462;2023-03-23T02:49:47;13.13;;;6.88;;
75930;SDS011;64609;47.052;15.462;2023-03-23T02:52:21;13.48;;;7.13;;
75930;SDS011;64609;47.052;15.462;2023-03-23T02:54:50;15.43;;;7.38;;
75930;SDS011;64609;47.052;15.462;2023-03-23T02:57:18;16.20;;;7.10;;
75930;SDS011;64609;47.052;15.462;2023-03-23T02:59:45;10.55;;;6.97;;
75930;SDS011;64609;47.052;15.462;2023-03-23T03:02:12;10.88;;;6.97;;
75930;SDS011;64609;47.052;15.462;2023-03-23T03:04:53;13.90;;;7.18;;
75930;SDS011;64609;47.052;15.462;2023-03-23T03:15:56;10.75;;;7.15;;
75930;SDS011;64609;47.052;15.462;2023-03-23T03:21:14;9.43;;;6.57;;
75930;SDS011;64609;47.052;15.462;2023-03-23T03:23:43;10.45;;;6.57;;
75930;SDS011;64609;47.052;15.462;2023-03-23T03:26:11;14.60;;;6.68;;
75930;SDS011;64609;47.052;15.462;2023-03-23T03:28:41;12.05;;;6.82;;
75930;SDS011;64609;47.052;15.462;2023-03-23T03:31:12;9.68;;;6.03;;
75930;SDS011;64609;47.052;15.462;2023-03-23T03:33:42;14.13;;;6.60;;
75930;SDS011;64609;47.052;15.462;2023-03-23T03:36:08;10.52;;;6.93;;
75930;SDS011;64609;47.052;15.462;2023-03-23T03:38:51;12.15;;;6.72;;
75930;SDS011;64609;47.052;15.462;2023-03-23T03:41:17;9.13;;;6.65;;
75930;SDS011;64609;47.052;15.462;2023-03-23T03:43:43;10.32;;;7.53;;
75930;SDS011;64609;47.052;15.462;2023-03-23T03:46:09;14.38;;;7.05;;
75930;SDS011;64609;47.052;15.462;2023-03-23T03:48:35;20.80;;;7.78;;
75930;SDS011;64609;47.052;15.462;2023-03-23T03:51:00;10.23;;;7.22;;
75930;SDS011;64609;47.052;15.462;2023-03-23T03:53:27;12.02;;;7.38;;
75930;SDS011;64609;47.052;15.462;2023-03-23T03:55:55;13.18;;;8.10;;
75930;SDS011;64609;47.052;15.462;2023-03-23T03:58:24;13.00;;;7.38;;
75930;SDS011;64609;47.052;15.462;2023-03-23T04:00:59;13.88;;;7.30;;
75930;SDS011;64609;47.052;15.462;2023-03-23T04:03:25;11.70;;;7.10;;
75930;SDS011;64609;47.052;15.462;2023-03-23T04:05:52;10.52;;;7.65;;
75930;SDS011;64609;47.052;15.462;2023-03-23T04:08:20;12.10;;;6.90;;
75930;SDS011;64609;47.052;15.462;2023-03-23T04:10:47;12.18;;;7.60;;
75930;SDS011;64609;47.052;15.462;2023-03-23T04:13:13;9.43;;;6.80;;
75930;SDS011;64609;47.052;15.462;2023-03-23T04:15:39;11.23;;;7.10;;
75930;SDS011;64609;47.052;15.462;2023-03-23T04:18:04;12.60;;;7.03;;
75930;SDS011;64609;47.052;15.462;2023-03-23T04:20:30;12.65;;;7.25;;
75930;SDS011;64609;47.052;15.462;2023-03-23T04:22:56;14.65;;;7.60;;
75930;SDS011;64609;47.052;15.462;2023-03-23T04:25:22;17.52;;;7.88;;
75930;SDS011;64609;47.052;15.462;2023-03-23T04:27:51;13.13;;;7.18;;
75930;SDS011;64609;47.052;15.462;2023-03-23T04:30:18;11.40;;;7.00;;
75930;SDS011;64609;47.052;15.462;2023-03-23T04:32:51;12.40;;;7.65;;
75930;SDS011;64609;47.052;15.462;2023-03-23T04:35:18;12.73;;;7.40;;
75930;SDS011;64609;47.052;15.462;2023-03-23T04:37:45;14.50;;;7.30;;
75930;SDS011;64609;47.052;15.462;2023-03-23T04:40:11;13.38;;;7.68;;
75930;SDS011;64609;47.052;15.462;2023-03-23T04:42:39;14.77;;;8.98;;
75930;SDS011;64609;47.052;15.462;2023-03-23T04:45:06;14.02;;;8.48;;
75930;SDS011;64609;47.052;15.462;2023-03-23T04:47:34;14.93;;;8.75;;
75930;SDS011;64609;47.052;15.462;2023-03-23T04:50:08;14.90;;;8.50;;
75930;SDS011;64609;47.052;15.462;2023-03-23T04:52:37;13.18;;;8.68;;
75930;SDS011;64609;47.052;15.462;2023-03-23T04:55:06;14.07;;;8.30;;
75930;SDS011;64609;47.052;15.462;2023-03-23T04:57:33;17.95;;;8.60;;
75930;SDS011;64609;47.052;15.462;2023-03-23T05:00:00;18.42;;;9.30;;
75930;SDS011;64609;47.052;15.462;2023-03-23T05:02:30;12.95;;;8.50;;
75930;SDS011;64609;47.052;15.462;2023-03-23T05:04:56;13.45;;;8.85;;
75930;SDS011;64609;47.052;15.462;2023-03-23T05:07:22;20.60;;;9.52;;
75930;SDS011;64609;47.052;15.462;2023-03-23T05:09:49;20.17;;;9.07;;
75930;SDS011;64609;47.052;15.462;2023-03-23T05:12:15;19.20;;;9.80;;
75930;SDS011;64609;47.052;15.462;2023-03-23T05:14:40;15.20;;;9.77;;
75930;SDS011;64609;47.052;15.462;2023-03-23T05:17:07;16.70;;;8.82;;
75930;SDS011;64609;47.052;15.462;2023-03-23T05:19:32;14.60;;;8.45;;
75930;SDS011;64609;47.052;15.462;2023-03-23T05:21:58;18.10;;;9.23;;
75930;SDS011;64609;47.052;15.462;2023-03-23T05:24:28;16.60;;;10.05;;
75930;SDS011;64609;47.052;15.462;2023-03-23T05:26:56;20.33;;;11.32;;
75930;SDS011;64609;47.052;15.462;2023-03-23T05:29:22;27.65;;;10.85;;
75930;SDS011;64609;47.052;15.462;2023-03-23T05:31:48;18.40;;;10.18;;
75930;SDS011;64609;47.052;15.462;2023-03-23T05:34:14;15.98;;;9.77;;
75930;SDS011;64609;47.052;15.462;2023-03-23T05:36:41;20.45;;;11.23;;
75930;SDS011;64609;47.052;15.462;2023-03-23T05:39:08;20.77;;;11.30;;
75930;SDS011;64609;47.052;15.462;2023-03-23T05:41:36;27.27;;;13.50;;
75930;SDS011;64609;47.052;15.462;2023-03-23T05:44:02;30.35;;;14.77;;
75930;SDS011;64609;47.052;15.462;2023-03-23T05:46:28;32.45;;;15.98;;
75930;SDS011;64609;47.052;15.462;2023-03-23T05:48:54;35.80;;;17.13;;
75930;SDS011;64609;47.052;15.462;2023-03-23T05:51:19;35.65;;;16.45;;
75930;SDS011;64609;47.052;15.462;2023-03-23T05:53:45;28.15;;;14.65;;
75930;SDS011;64609;47.052;15.462;2023-03-23T05:56:12;25.13;;;14.23;;
75930;SDS011;64609;47.052;15.462;2023-03-23T05:58:38;23.77;;;12.88;;
75930;SDS011;64609;47.052;15.462;2023-03-23T06:01:07;23.15;;;13.27;;
75930;SDS011;64609;47.052;15.462;2023-03-23T06:03:33;21.25;;;11.10;;
75930;SDS011;64609;47.052;15.462;2023-03-23T06:06:01;24.70;;;11.07;;
75930;SDS011;64609;47.052;15.462;2023-03-23T06:08:28;21.10;;;11.02;;
75930;SDS011;64609;47.052;15.462;2023-03-23T06:10:53;17.17;;;10.35;;
75930;SDS011;64609;47.052;15.462;2023-03-23T06:13:20;24.83;;;10.57;;
75930;SDS011;64609;47.052;15.462;2023-03-23T06:15:46;16.08;;;10.27;;
75930;SDS011;64609;47.052;15.462;2023-03-23T06:18:12;26.23;;;9.93;;
75930;SDS011;64609;47.052;15.462;2023-03-23T06:20:38;21.38;;;9.77;;
75930;SDS011;64609;47.052;15.462;2023-03-23T06:23:05;24.10;;;10.25;;
75930;SDS011;64609;47.052;15.462;2023-03-23T06:25:31;17.58;;;9.30;;
75930;SDS011;64609;47.052;15.462;2023-03-23T06:27:58;15.90;;;9.65;;
75930;SDS011;64609;47.052;15.462;2023-03-23T06:30:23;22.25;;;9.85;;
75930;SDS011;64609;47.052;15.462;2023-03-23T06:32:50;18.42;;;10.07;;
75930;SDS011;64609;47.052;15.462;2023-03-23T06:35:16;27.58;;;9.82;;
75930;SDS011;64609;47.052;15.462;2023-03-23T06:37:41;18.45;;;10.43;;
75930;SDS011;64609;47.052;15.462;2023-03-23T06:40:07;28.02;;;10.70;;
75930;SDS011;64609;47.052;15.462;2023-03-23T06:42:35;33.40;;;10.95;;
75930;SDS011;64609;47.052;15.462;2023-03-23T06:45:02;27.40;;;11.05;;
75930;SDS011;64609;47.052;15.462;2023-03-23T06:47:29;29.02;;;10.85;;
75930;SDS011;64609;47.052;15.462;2023-03-23T06:49:55;26.27;;;10.75;;
75930;SDS011;64609;47.052;15.462;2023-03-23T06:52:22;29.08;;;11.43;;
75930;SDS011;64609;47.052;15.462;2023-03-23T06:54:49;22.42;;;11.32;;
75930;SDS011;64609;47.052;15.462;2023-03-23T06:57:15;28.10;;;11.55;;
75930;SDS011;64609;47.052;15.462;2023-03-23T06:59:42;23.52;;;11.50;;
75930;SDS011;64609;47.052;15.462;2023-03-23T07:02:08;22.48;;;11.43;;
75930;SDS011;64609;47.052;15.462;2023-03-23T07:04:39;25.83;;;11.80;;
75930;SDS011;64609;47.052;15.462;2023-03-23T07:07:05;30.20;;;12.55;;
75930;SDS011;64609;47.052;15.462;2023-03-23T07:09:33;33.60;;;13.25;;
75930;SDS011;64609;47.052;15.462;2023-03-23T07:11:58;30.67;;;12.63;;
75930;SDS011;64609;47.052;15.462;2023-03-23T07:14:24;35.42;;;12.98;;
75930;SDS011;64609;47.052;15.462;2023-03-23T07:16:50;38.65;;;13.05;;
75930;SDS011;64609;47.052;15.462;2023-03-23T07:19:16;24.17;;;11.70;;
75930;SDS011;64609;47.052;15.462;2023-03-23T07:21:41;27.75;;;12.30;;
75930;SDS011;64609;47.052;15.462;2023-03-23T07:24:11;27.63;;;12.45;;
75930;SDS011;64609;47.052;15.462;2023-03-23T07:26:40;33.17;;;11.80;;
75930;SDS011;64609;47.052;15.462;2023-03-23T07:29:07;29.90;;;11.77;;
75930;SDS011;64609;47.052;15.462;2023-03-23T07:31:33;28.42;;;11.90;;
75930;SDS011;64609;47.052;15.462;2023-03-23T07:33:59;27.42;;;11.35;;
75930;SDS011;64609;47.052;15.462;2023-03-23T07:36:26;28.75;;;12.02;;
75930;SDS011;64609;47.052;15.462;2023-03-23T07:38:52;25.25;;;11.07;;
75930;SDS011;64609;47.052;15.462;2023-03-23T07:41:18;26.60;;;12.18;;
75930;SDS011;64609;47.052;15.462;2023-03-23T07:43:44;24.00;;;10.93;;
75930;SDS011;64609;47.052;15.462;2023-03-23T07:46:11;29.80;;;11.32;;
75930;SDS011;64609;47.052;15.462;2023-03-23T07:48:37;27.35;;;12.15;;
75930;SDS011;64609;47.052;15.462;2023-03-23T07:51:04;33.03;;;12.35;;
75930;SDS011;64609;47.052;15.462;2023-03-23T07:53:30;23.10;;;12.13;;
75930;SDS011;64609;47.052;15.462;2023-03-23T07:55:56;34.42;;;12.95;;
75930;SDS011;64609;47.052;15.462;2023-03-23T07:58:22;23.48;;;12.48;;
75930;SDS011;64609;47.052;15.462;2023-03-23T08:00:48;36.88;;;12.45;;
75930;SDS011;64609;47.052;15.462;2023-03-23T08:03:15;31.88;;;12.70;;
75930;SDS011;64609;47.052;15.462;2023-03-23T08:05:41;28.92;;;11.95;;
75930;SDS011;64609;47.052;15.462;2023-03-23T08:08:08;29.08;;;12.10;;
75930;SDS011;64609;47.052;15.462;2023-03-23T08:10:34;31.00;;;12.93;;
75930;SDS011;64609;47.052;15.462;2023-03-23T08:13:01;31.33;;;12.30;;
75930;SDS011;64609;47.052;15.462;2023-03-23T08:15:26;33.78;;;12.18;;
75930;SDS011;64609;47.052;15.462;2023-03-23T08:17:53;29.33;;;11.32;;
75930;SDS011;64609;47.052;15.462;2023-03-23T08:20:19;30.98;;;11.82;;
75930;SDS011;64609;47.052;15.462;2023-03-23T08:22:51;30.67;;;11.93;;
75930;SDS011;64609;47.052;15.462;2023-03-23T08:25:19;27.85;;;12.00;;
75930;SDS011;64609;47.052;15.462;2023-03-23T08:27:45;37.90;;;12.40;;
75930;SDS011;64609;47.052;15.462;2023-03-23T08:30:12;30.45;;;11.98;;
75930;SDS011;64609;47.052;15.462;2023-03-23T08:32:40;34.25;;;11.73;;
75930;SDS011;64609;47.052;15.462;2023-03-23T08:35:06;29.50;;;11.18;;
75930;SDS011;64609;47.052;15.462;2023-03-23T08:37:34;28.88;;;11.77;;
75930;SDS011;64609;47.052;15.462;2023-03-23T08:40:00;28.30;;;12.52;;
75930;SDS011;64609;47.052;15.462;2023-03-23T08:42:32;38.88;;;11.07;;
75930;SDS011;64609;47.052;15.462;2023-03-23T08:44:58;24.10;;;10.52;;
75930;SDS011;64609;47.052;15.462;2023-03-23T08:47:24;27.73;;;10.50;;
75930;SDS011;64609;47.052;15.462;2023-03-23T08:49:50;29.15;;;11.75;;
75930;SDS011;64609;47.052;15.462;2023-03-23T08:52:18;33.20;;;10.85;;
75930;SDS011;64609;47.052;15.462;2023-03-23T08:54:44;33.03;;;11.10;;
75930;SDS011;64609;47.052;15.462;2023-03-23T08:57:12;31.23;;;11.18;;
75930;SDS011;64609;47.052;15.462;2023-03-23T08:59:40;29.25;;;10.68;;
75930;SDS011;64609;47.052;15.462;2023-03-23T09:02:08;23.25;;;10.48;;
75930;SDS011;64609;47.052;15.462;2023-03-23T09:04:38;29.10;;;10.02;;
75930;SDS011;64609;47.052;15.462;2023-03-23T09:07:04;22.75;;;9.52;;
75930;SDS011;64609;47.052;15.462;2023-03-23T09:09:31;33.03;;;10.77;;
75930;SDS011;64609;47.052;15.462;2023-03-23T09:11:59;25.77;;;10.57;;
75930;SDS011;64609;47.052;15.462;2023-03-23T09:14:25;31.30;;;10.00;;
75930;SDS011;64609;47.052;15.462;2023-03-23T09:16:51;31.50;;;9.63;;
75930;SDS011;64609;47.052;15.462;2023-03-23T09:19:17;30.30;;;9.50;;
75930;SDS011;64609;47.052;15.462;2023-03-23T09:21:43;25.33;;;10.02;;
75930;SDS011;64609;47.052;15.462;2023-03-23T09:24:10;39.58;;;10.55;;
75930;SDS011;64609;47.052;15.462;2023-03-23T09:26:36;21.83;;;9.60;;
75930;SDS011;64609;47.052;15.462;2023-03-23T09:29:02;41.35;;;10.60;;
75930;SDS011;64609;47.052;15.462;2023-03-23T09:31:28;32.22;;;10.82;;
75930;SDS011;64609;47.052;15.462;2023-03-23T09:33:57;28.30;;;9.55;;
75930;SDS011;64609;47.052;15.462;2023-03-23T09:36:24;26.05;;;10.10;;
75930;SDS011;64609;47.052;15.462;2023-03-23T09:38:51;27.17;;;9.70;;
75930;SDS011;64609;47.052;15.462;2023-03-23T09:46:45;37.42;;;10.30;;
75930;SDS011;64609;47.052;15.462;2023-03-23T09:51:59;27.50;;;9.38;;
75930;SDS011;64609;47.052;15.462;2023-03-23T09:54:34;26.58;;;9.20;;
75930;SDS011;64609;47.052;15.462;2023-03-23T09:57:16;32.72;;;9.63;;
75930;SDS011;64609;47.052;15.462;2023-03-23T10:00:09;22.20;;;8.82;;
75930;SDS011;64609;47.052;15.462;2023-03-23T10:02:41;28.27;;;9.45;;
75930;SDS011;64609;47.052;15.462;2023-03-23T10:07:46;19.38;;;8.38;;
75930;SDS011;64609;47.052;15.462;2023-03-23T10:10:13;25.38;;;9.25;;
75930;SDS011;64609;47.052;15.462;2023-03-23T10:12:49;25.02;;;8.35;;
75930;SDS011;64609;47.052;15.462;2023-03-23T10:15:21;19.95;;;8.00;;
75930;SDS011;64609;47.052;15.462;2023-03-23T10:20:55;25.42;;;7.35;;
75930;SDS011;64609;47.052;15.462;2023-03-23T10:23:41;27.30;;;8.27;;
75930;SDS011;64609;47.052;15.462;2023-03-23T10:29:13;26.50;;;8.00;;
75930;SDS011;64609;47.052;15.462;2023-03-23T10:32:03;15.77;;;6.80;;
75930;SDS011;64609;47.052;15.462;2023-03-23T10:34:52;14.10;;;6.47;;
75930;SDS011;64609;47.052;15.462;2023-03-23T10:37:28;15.77;;;6.63;;
75930;SDS011;64609;47.052;15.462;2023-03-23T10:40:01;16.35;;;6.35;;
75930;SDS011;64609;47.052;15.462;2023-03-23T10:42:34;13.45;;;6.50;;
75930;SDS011;64609;47.052;15.462;2023-03-23T10:47:49;13.32;;;5.65;;
75930;SDS011;64609;47.052;15.462;2023-03-23T10:50:26;20.60;;;6.65;;
75930;SDS011;64609;47.052;15.462;2023-03-23T10:52:56;19.15;;;7.22;;
75930;SDS011;64609;47.052;15.462;2023-03-23T10:55:24;13.52;;;7.68;;
75930;SDS011;64609;47.052;15.462;2023-03-23T10:58:01;13.35;;;6.97;;
75930;SDS011;64609;47.052;15.462;2023-03-23T11:00:29;20.98;;;7.07;;
75930;SDS011;64609;47.052;15.462;2023-03-23T11:05:35;14.50;;;6.78;;
75930;SDS011;64609;47.052;15.462;2023-03-23T11:08:09;13.88;;;7.00;;
75930;SDS011;64609;47.052;15.462;2023-03-23T11:10:39;19.92;;;7.45;;
75930;SDS011;64609;47.052;15.462;2023-03-23T11:13:12;11.82;;;6.20;;
75930;SDS011;64609;47.052;15.462;2023-03-23T11:15:40;19.27;;;6.35;;
75930;SDS011;64609;47.052;15.462;2023-03-23T11:18:12;12.02;;;6.28;;
75930;SDS011;64609;47.052;15.462;2023-03-23T11:20:48;14.57;;;5.90;;
75930;SDS011;64609;47.052;15.462;2023-03-23T11:23:28;16.35;;;6.80;;
75930;SDS011;64609;47.052;15.462;2023-03-23T11:25:58;15.23;;;6.15;;
75930;SDS011;64609;47.052;15.462;2023-03-23T11:28:29;11.57;;;6.03;;
75930;SDS011;64609;47.052;15.462;2023-03-23T11:31:03;14.30;;;5.90;;
75930;SDS011;64609;47.052;15.462;2023-03-23T11:36:06;14.75;;;5.78;;
75930;SDS011;64609;47.052;15.462;2023-03-23T11:38:33;9.75;;;5.68;;
75930;SDS011;64609;47.052;15.462;2023-03-23T11:41:00;9.88;;;5.68;;
75930;SDS011;64609;47.052;15.462;2023-03-23T11:43:26;8.95;;;5.18;;
75930;SDS011;64609;47.052;15.462;2023-03-23T11:48:26;10.00;;;5.40;;
75930;SDS011;64609;47.052;15.462;2023-03-23T11:51:18;8.73;;;5.38;;
75930;SDS011;64609;47.052;15.462;2023-03-23T11:53:48;12.80;;;5.30;;
75930;SDS011;64609;47.052;15.462;2023-03-23T11:56:24;11.25;;;5.50;;
75930;SDS011;64609;47.052;15.462;2023-03-23T11:59:01;7.07;;;4.95;;
75930;SDS011;64609;47.052;15.462;2023-03-23T12:01:37;9.95;;;5.13;;
75930;SDS011;64609;47.052;15.462;2023-03-23T12:30:35;13.32;;;6.85;;
75930;SDS011;64609;47.052;15.462;2023-03-23T12:33:13;14.95;;;5.32;;
75930;SDS011;64609;47.052;15.462;2023-03-23T12:44:06;11.45;;;5.68;;
75930;SDS011;64609;47.052;15.462;2023-03-23T12:46:53;12.27;;;6.35;;
75930;SDS011;64609;47.052;15.462;2023-03-23T12:49:56;110.15;;;12.82;;
75930;SDS011;64609;47.052;15.462;2023-03-23T12:52:42;10.93;;;5.95;;
75930;SDS011;64609;47.052;15.462;2023-03-23T13:03:26;11.52;;;6.13;;
75930;SDS011;64609;47.052;15.462;2023-03-23T13:11:29;11.15;;;6.03;;
75930;SDS011;64609;47.052;15.462;2023-03-23T13:14:06;10.63;;;6.38;;
75930;SDS011;64609;47.052;15.462;2023-03-23T13:21:59;18.88;;;5.80;;
75930;SDS011;64609;47.052;15.462;2023-03-23T13:24:32;9.25;;;5.68;;
75930;SDS011;64609;47.052;15.462;2023-03-23T13:27:00;11.75;;;5.70;;
75930;SDS011;64609;47.052;15.462;2023-03-23T13:29:26;13.27;;;6.10;;
75930;SDS011;64609;47.052;15.462;2023-03-23T13:32:38;11.45;;;6.10;;
75930;SDS011;64609;47.052;15.462;2023-03-23T13:34:43;11.73;;;6.60;;
75930;SDS011;64609;47.052;15.462;2023-03-23T13:37:19;10.27;;;6.15;;
75930;SDS011;64609;47.052;15.462;2023-03-23T13:39:51;15.10;;;5.88;;
75930;SDS011;64609;47.052;15.462;2023-03-23T13:42:28;11.68;;;6.10;;
75930;SDS011;64609;47.052;15.462;2023-03-23T13:45:20;12.05;;;5.53;;
75930;SDS011;64609;47.052;15.462;2023-03-23T13:47:49;15.77;;;6.65;;
75930;SDS011;64609;47.052;15.462;2023-03-23T13:50:27;9.27;;;5.93;;
75930;SDS011;64609;47.052;15.462;2023-03-23T13:52:58;12.18;;;6.40;;
75930;SDS011;64609;47.052;15.462;2023-03-23T13:55:48;10.38;;;6.35;;
75930;SDS011;64609;47.052;15.462;2023-03-23T13:58:30;13.85;;;6.38;;
75930;SDS011;64609;47.052;15.462;2023-03-23T14:03:40;15.15;;;6.55;;
75930;SDS011;64609;47.052;15.462;2023-03-23T14:06:15;9.75;;;5.75;;
75930;SDS011;64609;47.052;15.462;2023-03-23T14:08:48;11.70;;;6.03;;
75930;SDS011;64609;47.052;15.462;2023-03-23T14:11:24;11.95;;;5.35;;
75930;SDS011;64609;47.052;15.462;2023-03-23T14:14:00;12.65;;;5.57;;
75930;SDS011;64609;47.052;15.462;2023-03-23T14:16:44;12.25;;;5.60;;
75930;SDS011;64609;47.052;15.462;2023-03-23T14:19:17;10.13;;;6.07;;
75930;SDS011;64609;47.052;15.462;2023-03-23T14:21:51;11.40;;;5.75;;
75930;SDS011;64609;47.052;15.462;2023-03-23T14:24:27;8.73;;;5.05;;
75930;SDS011;64609;47.052;15.462;2023-03-23T14:29:34;9.13;;;5.20;;
75930;SDS011;64609;47.052;15.462;2023-03-23T14:32:00;10.98;;;5.07;;
75930;SDS011;64609;47.052;15.462;2023-03-23T14:34:29;13.77;;;5.30;;
75930;SDS011;64609;47.052;15.462;2023-03-23T14:36:57;12.52;;;5.00;;
75930;SDS011;64609;47.052;15.462;2023-03-23T14:41:52;11.82;;;4.80;;
75930;SDS011;64609;47.052;15.462;2023-03-23T14:44:22;14.20;;;4.82;;
75930;SDS011;64609;47.052;15.462;2023-03-23T14:46:54;9.90;;;4.53;;
75930;SDS011;64609;47.052;15.462;2023-03-23T14:49:41;9.52;;;4.13;;
75930;SDS011;64609;47.052;15.462;2023-03-23T14:52:15;12.50;;;4.70;;
75930;SDS011;64609;47.052;15.462;2023-03-23T14:54:42;6.70;;;4.03;;
75930;SDS011;64609;47.052;15.462;2023-03-23T14:59:41;6.70;;;4.13;;
75930;SDS011;64609;47.052;15.462;2023-03-23T15:02:09;11.00;;;4.43;;
75930;SDS011;64609;47.052;15.462;2023-03-23T15:04:46;10.43;;;3.72;;
75930;SDS011;64609;47.052;15.462;2023-03-23T15:07:15;10.27;;;4.53;;
75930;SDS011;64609;47.052;15.462;2023-03-23T15:09:43;10.13;;;3.80;;
75930;SDS011;64609;47.052;15.462;2023-03-23T15:12:21;8.10;;;4.40;;
75930;SDS011;64609;47.052;15.462;2023-03-23T15:14:52;9.65;;;4.38;;
75930;SDS011;64609;47.052;15.462;2023-03-23T15:17:21;6.17;;;3.60;;
75930;SDS011;64609;47.052;15.462;2023-03-23T15:19:49;9.70;;;3.90;;
75930;SDS011;64609;47.052;15.462;2023-03-23T15:24:41;8.80;;;3.95;;
75930;SDS011;64609;47.052;15.462;2023-03-23T15:27:12;5.63;;;3.25;;
75930;SDS011;64609;47.052;15.462;2023-03-23T15:29:55;10.13;;;3.80;;
75930;SDS011;64609;47.052;15.462;2023-03-23T15:32:29;6.55;;;3.42;;
75930;SDS011;64609;47.052;15.462;2023-03-23T15:35:09;6.68;;;3.63;;
75930;SDS011;64609;47.052;15.462;2023-03-23T15:37:49;10.18;;;4.07;;
75930;SDS011;64609;47.052;15.462;2023-03-23T15:40:18;7.82;;;4.15;;
75930;SDS011;64609;47.052;15.462;2023-03-23T15:42:46;7.28;;;3.90;;
75930;SDS011;64609;47.052;15.462;2023-03-23T15:50:12;10.38;;;4.13;;
75930;SDS011;64609;47.052;15.462;2023-03-23T15:52:44;10.52;;;3.90;;
75930;SDS011;64609;47.052;15.462;2023-03-23T15:57:50;11.60;;;4.28;;
75930;SDS011;64609;47.052;15.462;2023-03-23T16:00:18;8.52;;;4.00;;
75930;SDS011;64609;47.052;15.462;2023-03-23T16:02:46;8.35;;;4.22;;
75930;SDS011;64609;47.052;15.462;2023-03-23T16:05:13;10.52;;;4.20;;
75930;SDS011;64609;47.052;15.462;2023-03-23T16:07:39;9.35;;;3.85;;
75930;SDS011;64609;47.052;15.462;2023-03-23T16:10:06;9.82;;;4.25;;
75930;SDS011;64609;47.052;15.462;2023-03-23T16:12:38;7.75;;;3.97;;
75930;SDS011;64609;47.052;15.462;2023-03-23T16:15:04;10.55;;;3.70;;
75930;SDS011;64609;47.052;15.462;2023-03-23T16:17:30;10.80;;;3.97;;
75930;SDS011;64609;47.052;15.462;2023-03-23T16:19:57;12.52;;;4.32;;
75930;SDS011;64609;47.052;15.462;2023-03-23T16:22:22;17.50;;;3.97;;
75930;SDS011;64609;47.052;15.462;2023-03-23T16:24:48;6.65;;;3.88;;
75930;SDS011;64609;47.052;15.462;2023-03-23T16:27:14;9.48;;;4.20;;
75930;SDS011;64609;47.052;15.462;2023-03-23T16:29:39;12.90;;;4.30;;
75930;SDS011;64609;47.052;15.462;2023-03-23T16:32:05;10.43;;;3.70;;
75930;SDS011;64609;47.052;15.462;2023-03-23T16:34:30;9.68;;;4.20;;
75930;SDS011;64609;47.052;15.462;2023-03-23T16:36:58;12.20;;;4.18;;